This is the latest recevied weather packets stored in our database for station/object W4IFI. If no packets are shown the sender has not sent any weather packets the latest 10 day(s).
| Time | Temp. | Humidity | Pressure | Rain* | Wind** | Luminosity | Snow |
|---|---|---|---|---|---|---|---|
| 1777164003 | 12.78° C | 28% | 1009.2 hPa | 0 mm | - | - | - |
| 1777162638 | 13.33° C | 25% | 1008.9 hPa | 0 mm | - | - | - |
| 1777161603 | 13.89° C | 23% | 1008.7 hPa | 0 mm | - | - | - |
| 1777160403 | 13.89° C | 22% | 1008.8 hPa | 0 mm | - | - | - |
| 1777159203 | 13.89° C | 22% | 1008.9 hPa | 0 mm | - | - | - |
| 1777156203 | 14.44° C | 22% | 1009 hPa | 0 mm | - | - | - |
| 1777154703 | 13.89° C | 21% | 1009.4 hPa | 0 mm | - | - | - |
| 1777152903 | 15° C | 20% | 1009.6 hPa | 0 mm | - | - | - |
| 1777152603 | 15° C | 20% | 1009.8 hPa | 0 mm | - | - | - |
| 1777152303 | 15° C | 21% | 1009.7 hPa | 0 mm | - | - | - |
| 1777151538 | 15° C | 21% | 1010 hPa | 0 mm | - | - | - |
| 1777150503 | 14.44° C | 22% | 1010.1 hPa | 0 mm | - | - | - |
| 1777149003 | 13.89° C | 21% | 1010.4 hPa | 0 mm | - | - | - |
| 1777148403 | 13.89° C | 21% | 1010.5 hPa | 0 mm | - | - | - |
| 1777147636 | 14.44° C | 21% | 1010.5 hPa | 0 mm | - | - | - |
| 1777145403 | 13.33° C | 22% | 1010.7 hPa | 0 mm | - | - | - |
| 1777144503 | 14.44° C | 21% | 1010.8 hPa | 0 mm | - | - | - |
| 1777144203 | 13.89° C | 21% | 1010.8 hPa | 0 mm | - | - | - |
| 1777142103 | 13.33° C | 23% | 1011.2 hPa | 0 mm | - | - | - |
| 1777141203 | 13.33° C | 21% | 1011.3 hPa | 0 mm | - | - | - |
| 1777139237 | 13.33° C | 22% | 1011.4 hPa | 0 mm | - | - | - |
| 1777136103 | 12.22° C | 23% | 1011.5 hPa | 0 mm | - | - | - |
| 1777135203 | 12.22° C | 23% | 1011.6 hPa | 0 mm | - | - | - |
| 1777133837 | 11.67° C | 26% | 1011.7 hPa | 0 mm | - | - | - |
| 1777133103 | 11.11° C | 25% | 1011.7 hPa | 0 mm | - | - | - |
* Rain latest hour (hover to see other rain measurements)
** Current wind speed in m/s (hover to see current wind gust speed)